createdAt,value
2018-10-21T00:01:31.555Z,11.70
2018-10-21T00:04:05.162Z,11.90
2018-10-21T00:06:38.698Z,11.90
2018-10-21T00:09:12.992Z,12.00
2018-10-21T00:11:46.390Z,12.00
2018-10-21T00:14:19.806Z,12.00
2018-10-21T00:16:53.227Z,11.90
2018-10-21T00:19:26.719Z,12.00
2018-10-21T00:22:00.132Z,12.00
2018-10-21T00:24:33.558Z,11.80
2018-10-21T00:27:07.269Z,11.70
2018-10-21T00:29:40.719Z,11.80
2018-10-21T00:32:14.124Z,11.70
2018-10-21T00:34:47.548Z,11.70
2018-10-21T00:37:20.971Z,11.80
2018-10-21T00:39:54.417Z,11.30
2018-10-21T00:42:27.879Z,10.90
2018-10-21T00:45:01.465Z,11.00
2018-10-21T00:47:34.851Z,11.10
2018-10-21T00:50:09.650Z,11.20
2018-10-21T00:52:43.030Z,11.10
2018-10-21T00:55:16.440Z,11.20
2018-10-21T00:57:49.840Z,11.10
2018-10-21T01:00:23.306Z,10.80
2018-10-21T01:02:57.105Z,10.70
2018-10-21T01:05:30.497Z,10.90
2018-10-21T01:08:04.031Z,10.90
2018-10-21T01:10:37.464Z,11.10
2018-10-21T01:13:10.859Z,11.10
2018-10-21T01:15:44.391Z,11.10
2018-10-21T01:18:17.786Z,11.10
2018-10-21T01:20:51.199Z,11.10
2018-10-21T01:23:24.588Z,11.10
2018-10-21T01:25:57.999Z,11.20
2018-10-21T01:28:31.388Z,11.20
2018-10-21T01:31:05.051Z,11.10
2018-10-21T01:33:38.444Z,11.00
2018-10-21T01:36:11.930Z,11.00
2018-10-21T01:38:45.326Z,11.00
2018-10-21T01:41:18.748Z,10.80
2018-10-21T01:43:52.149Z,10.70
2018-10-21T01:46:25.563Z,10.70
2018-10-21T01:48:58.979Z,10.80
2018-10-21T01:51:32.414Z,10.80
2018-10-21T01:54:05.939Z,10.80
2018-10-21T01:56:39.373Z,10.70
2018-10-21T01:59:12.783Z,10.80
2018-10-21T02:01:46.206Z,10.70
2018-10-21T02:04:19.648Z,10.60
2018-10-21T02:06:53.095Z,10.30
2018-10-21T02:09:26.495Z,10.20
2018-10-21T02:11:59.915Z,10.50
2018-10-21T02:14:33.318Z,10.50
2018-10-21T02:17:06.767Z,10.60
2018-10-21T02:19:40.170Z,10.60
2018-10-21T02:22:13.586Z,10.60
2018-10-21T02:24:47.071Z,10.70
2018-10-21T02:27:20.580Z,10.60
2018-10-21T02:29:53.983Z,10.50
2018-10-21T02:32:27.418Z,10.60
2018-10-21T02:35:00.831Z,10.40
2018-10-21T02:37:34.287Z,10.50
2018-10-21T02:40:17.809Z,10.40
2018-10-21T02:42:51.252Z,10.30
2018-10-21T02:45:24.633Z,10.30
2018-10-21T02:47:58.021Z,10.20
2018-10-21T02:50:31.428Z,10.00
2018-10-21T02:53:04.855Z,10.00
2018-10-21T02:55:38.223Z,10.10
2018-10-21T02:58:11.624Z,10.10
2018-10-21T03:00:45.067Z,10.10
2018-10-21T03:03:18.551Z,10.00
2018-10-21T03:05:51.857Z,10.00
2018-10-21T03:08:25.247Z,10.00
2018-10-21T03:10:59.054Z,10.00
2018-10-21T03:13:32.856Z,10.00
2018-10-21T03:16:06.308Z,10.10
2018-10-21T03:18:39.709Z,10.00
2018-10-21T03:21:13.191Z,10.00
2018-10-21T03:23:46.498Z,9.90
2018-10-21T03:26:19.880Z,9.90
2018-10-21T03:28:53.291Z,9.90
2018-10-21T03:31:26.659Z,9.90
2018-10-21T03:34:01.227Z,9.90
2018-10-21T03:36:34.532Z,10.00
2018-10-21T03:39:09.094Z,9.90
2018-10-21T03:41:42.498Z,9.80
2018-10-21T03:44:15.871Z,9.80
2018-10-21T03:46:49.271Z,9.80
2018-10-21T03:49:22.656Z,9.70
2018-10-21T03:51:56.092Z,9.70
2018-10-21T03:54:30.282Z,9.60
2018-10-21T03:57:04.768Z,9.40
2018-10-21T03:59:38.136Z,9.20
2018-10-21T04:02:11.536Z,9.40
2018-10-21T04:04:44.911Z,9.40
2018-10-21T04:07:18.307Z,9.50
2018-10-21T04:09:52.044Z,9.50
2018-10-21T04:12:25.433Z,9.50
2018-10-21T04:14:58.804Z,9.50
2018-10-21T04:17:32.312Z,9.50
2018-10-21T04:20:06.547Z,9.50
2018-10-21T04:22:45.444Z,9.50
2018-10-21T04:25:19.307Z,9.50
2018-10-21T04:27:53.651Z,9.40
2018-10-21T04:30:28.088Z,9.30
2018-10-21T04:33:23.769Z,9.30
2018-10-21T04:35:57.144Z,9.20
2018-10-21T04:38:41.919Z,9.20
2018-10-21T04:41:17.393Z,9.20
2018-10-21T04:43:50.786Z,9.20
2018-10-21T04:46:24.170Z,9.20
2018-10-21T04:48:57.579Z,9.20
2018-10-21T04:51:31.019Z,9.10
2018-10-21T04:54:04.447Z,9.10
2018-10-21T04:56:37.827Z,9.00
2018-10-21T04:59:11.219Z,9.00
2018-10-21T05:01:44.691Z,9.10
2018-10-21T05:04:18.113Z,9.20
2018-10-21T05:06:51.556Z,9.10
2018-10-21T05:09:25.567Z,9.10
2018-10-21T05:11:58.939Z,9.10
2018-10-21T05:14:32.334Z,9.00
2018-10-21T05:17:05.868Z,9.00
2018-10-21T05:19:39.252Z,9.00
2018-10-21T05:22:12.701Z,9.00
2018-10-21T05:24:46.103Z,8.90
2018-10-21T05:27:19.480Z,9.10
2018-10-21T05:29:52.867Z,9.20
2018-10-21T05:32:26.241Z,9.20
2018-10-21T05:34:59.632Z,9.10
2018-10-21T05:37:33.008Z,9.10
2018-10-21T05:40:08.901Z,9.10
2018-10-21T05:42:42.709Z,9.10
2018-10-21T05:45:16.147Z,9.10
2018-10-21T05:47:49.527Z,9.10
2018-10-21T05:50:22.954Z,9.10
2018-10-21T05:53:01.113Z,9.00
2018-10-21T05:55:34.516Z,9.00
2018-10-21T05:58:07.980Z,9.00
2018-10-21T06:00:41.356Z,9.10
2018-10-21T06:03:14.758Z,9.00
2018-10-21T06:05:49.092Z,9.00
2018-10-21T06:08:22.527Z,8.90
2018-10-21T06:10:55.900Z,8.80
2018-10-21T06:13:29.360Z,8.70
2018-10-21T06:16:02.781Z,8.70
2018-10-21T06:18:36.160Z,8.80
2018-10-21T06:21:09.532Z,8.90
2018-10-21T06:23:42.986Z,8.90
2018-10-21T06:26:16.328Z,8.90
2018-10-21T06:28:49.731Z,8.90
2018-10-21T06:31:23.179Z,8.80
2018-10-21T06:33:56.567Z,8.80
2018-10-21T06:36:29.941Z,8.80
2018-10-21T06:39:04.239Z,8.80
2018-10-21T06:41:37.587Z,8.70
2018-10-21T06:44:10.986Z,8.80
2018-10-21T06:46:44.399Z,8.80
2018-10-21T06:49:17.839Z,8.90
2018-10-21T06:51:51.248Z,8.90
2018-10-21T06:54:24.632Z,8.90
2018-10-21T06:56:58.067Z,8.90
2018-10-21T06:59:31.422Z,8.80
2018-10-21T07:02:05.158Z,8.70
2018-10-21T07:04:39.710Z,8.70
2018-10-21T07:07:13.001Z,8.60
2018-10-21T07:09:46.387Z,8.80
2018-10-21T07:12:19.856Z,8.80
2018-10-21T07:14:53.248Z,8.90
2018-10-21T07:17:28.714Z,8.90
2018-10-21T07:20:02.114Z,8.90
2018-10-21T07:22:35.482Z,8.90
2018-10-21T07:25:09.720Z,8.90
2018-10-21T07:27:43.091Z,8.80
2018-10-21T07:30:16.484Z,8.80
2018-10-21T07:32:49.859Z,8.90
2018-10-21T07:35:23.308Z,8.90
2018-10-21T07:37:56.671Z,9.00
2018-10-21T07:40:30.107Z,9.00
2018-10-21T07:43:03.483Z,9.00
2018-10-21T07:45:36.880Z,9.00
2018-10-21T07:48:10.248Z,9.10
2018-10-21T07:50:43.720Z,9.00
2018-10-21T07:53:17.107Z,9.00
2018-10-21T07:55:50.588Z,9.10
2018-10-21T07:58:23.920Z,9.10
2018-10-21T08:00:57.505Z,9.10
2018-10-21T08:03:30.867Z,9.00
2018-10-21T08:06:25.367Z,9.10
2018-10-21T08:08:58.792Z,9.00
2018-10-21T08:11:32.191Z,9.00
2018-10-21T08:14:05.613Z,9.10
2018-10-21T08:16:39.009Z,9.20
2018-10-21T08:19:12.424Z,9.10
2018-10-21T08:21:45.808Z,9.20
2018-10-21T08:24:19.219Z,9.40
2018-10-21T08:26:52.625Z,9.40
2018-10-21T08:29:26.019Z,9.40
2018-10-21T08:31:59.383Z,9.40
2018-10-21T08:34:33.891Z,9.40
2018-10-21T08:37:07.269Z,9.50
2018-10-21T08:39:40.692Z,9.60
2018-10-21T08:42:14.068Z,9.70
2018-10-21T08:44:47.486Z,9.70
2018-10-21T08:47:20.880Z,9.70
2018-10-21T08:49:54.315Z,9.60
2018-10-21T08:52:27.727Z,9.50
2018-10-21T08:55:01.134Z,9.30
2018-10-21T08:57:34.511Z,9.20
2018-10-21T09:00:11.911Z,9.30
2018-10-21T09:02:45.576Z,9.30
2018-10-21T09:05:19.536Z,9.10
2018-10-21T09:07:52.912Z,9.30
2018-10-21T09:10:26.344Z,9.30
2018-10-21T09:12:59.720Z,9.40
2018-10-21T09:15:33.139Z,9.50
2018-10-21T09:18:06.528Z,9.50
2018-10-21T09:20:39.987Z,9.40
2018-10-21T09:23:13.379Z,9.50
2018-10-21T09:25:46.766Z,9.60
2018-10-21T09:28:20.146Z,9.70
2018-10-21T09:30:53.583Z,9.80
2018-10-21T09:33:27.136Z,9.90
2018-10-21T09:36:00.467Z,9.90
2018-10-21T09:38:33.871Z,9.90
2018-10-21T09:41:07.286Z,10.00
2018-10-21T09:43:40.730Z,9.60
2018-10-21T09:46:15.311Z,9.60
2018-10-21T09:48:48.640Z,9.50
2018-10-21T09:51:22.036Z,9.50
2018-10-21T09:53:55.416Z,9.70
2018-10-21T09:56:28.816Z,10.00
2018-10-21T09:59:02.195Z,10.20
2018-10-21T10:01:41.010Z,10.30
2018-10-21T10:04:16.691Z,10.50
2018-10-21T10:06:50.080Z,10.50
2018-10-21T10:09:23.564Z,10.60
2018-10-21T10:11:57.008Z,10.70
2018-10-21T10:14:30.448Z,10.80
2018-10-21T10:17:03.885Z,10.90
2018-10-21T10:19:37.254Z,10.90
2018-10-21T10:22:10.875Z,11.00
2018-10-21T10:24:44.268Z,11.10
2018-10-21T10:27:17.765Z,11.20
2018-10-21T10:29:51.293Z,11.20
2018-10-21T10:32:24.817Z,11.30
2018-10-21T10:34:58.293Z,11.50
2018-10-21T10:37:32.481Z,11.70
2018-10-21T10:40:06.636Z,11.80
2018-10-21T10:42:40.154Z,11.90
2018-10-21T10:45:13.544Z,12.10
2018-10-21T10:47:47.028Z,12.30
2018-10-21T10:50:20.500Z,12.40
2018-10-21T10:52:53.980Z,12.40
2018-10-21T10:55:32.840Z,12.50
2018-10-21T10:58:06.417Z,12.50
2018-10-21T11:00:39.747Z,12.50
2018-10-21T11:03:13.132Z,12.40
2018-10-21T11:05:46.532Z,12.60
2018-10-21T11:08:20.185Z,12.90
2018-10-21T11:10:53.636Z,13.10
2018-10-21T11:13:28.211Z,13.20
2018-10-21T11:16:01.771Z,13.30
2018-10-21T11:18:35.260Z,13.20
2018-10-21T11:21:08.672Z,13.40
2018-10-21T11:23:42.244Z,13.40
2018-10-21T11:26:15.651Z,13.40
2018-10-21T11:28:49.032Z,13.60
2018-10-21T11:31:22.436Z,13.70
2018-10-21T11:33:55.903Z,13.80
2018-10-21T11:36:29.345Z,13.80
2018-10-21T11:39:03.985Z,13.70
2018-10-21T11:41:37.485Z,13.70
2018-10-21T11:44:10.879Z,13.80
2018-10-21T11:46:44.287Z,14.00
2018-10-21T11:49:17.772Z,14.30
2018-10-21T11:51:51.192Z,14.40
2018-10-21T11:54:24.663Z,14.40
2018-10-21T11:56:58.248Z,14.40
2018-10-21T11:59:31.664Z,14.30
2018-10-21T12:02:05.207Z,14.40
2018-10-21T12:04:38.584Z,14.40
2018-10-21T12:07:12.080Z,14.60
2018-10-21T12:09:46.523Z,14.80
2018-10-21T12:12:19.932Z,14.90
2018-10-21T12:14:53.315Z,15.10
2018-10-21T12:17:26.871Z,15.20
2018-10-21T12:20:00.310Z,15.20
2018-10-21T12:22:33.818Z,15.40
2018-10-21T12:25:07.342Z,15.50
2018-10-21T12:27:40.737Z,15.50
2018-10-21T12:30:14.119Z,15.50
2018-10-21T12:32:47.516Z,15.70
2018-10-21T12:35:20.908Z,15.70
2018-10-21T12:37:54.306Z,15.80
2018-10-21T12:40:27.691Z,15.90
2018-10-21T12:43:01.123Z,16.00
2018-10-21T12:45:34.594Z,16.10
2018-10-21T12:48:08.000Z,16.10
2018-10-21T12:50:41.439Z,16.20
2018-10-21T12:53:15.026Z,16.30
2018-10-21T12:55:50.528Z,16.30
2018-10-21T12:58:24.188Z,16.40
2018-10-21T13:00:57.613Z,16.50
2018-10-21T13:03:30.996Z,16.50
2018-10-21T13:06:04.453Z,16.60
2018-10-21T13:08:38.980Z,16.40
2018-10-21T13:11:12.579Z,16.40
2018-10-21T13:13:46.044Z,16.50
2018-10-21T13:16:19.450Z,16.40
2018-10-21T13:18:53.739Z,16.50
2018-10-21T13:21:27.159Z,16.70
2018-10-21T13:24:00.543Z,16.80
2018-10-21T13:26:33.964Z,16.70
2018-10-21T13:29:07.361Z,16.80
2018-10-21T13:31:40.763Z,16.80
2018-10-21T13:34:14.193Z,16.70
2018-10-21T13:36:47.583Z,16.80
2018-10-21T13:39:21.041Z,16.80
2018-10-21T13:41:54.434Z,16.90
2018-10-21T13:44:27.807Z,16.90
2018-10-21T13:47:01.211Z,17.00
2018-10-21T13:49:34.600Z,17.10
2018-10-21T13:52:08.190Z,17.10
2018-10-21T13:54:41.544Z,17.30
2018-10-21T13:57:15.508Z,17.20
2018-10-21T13:59:48.887Z,17.30
2018-10-21T14:02:22.807Z,17.30
2018-10-21T14:04:56.209Z,17.30
2018-10-21T14:07:29.655Z,17.30
2018-10-21T14:10:03.123Z,17.20
2018-10-21T14:12:36.547Z,17.30
2018-10-21T14:15:09.989Z,17.20
2018-10-21T14:17:43.351Z,17.30
2018-10-21T14:20:16.746Z,17.30
2018-10-21T14:22:50.139Z,17.30
2018-10-21T14:25:23.592Z,17.40
2018-10-21T14:27:57.027Z,17.40
2018-10-21T14:30:30.583Z,17.50
2018-10-21T14:33:03.966Z,17.50
2018-10-21T14:35:37.335Z,17.60
2018-10-21T14:38:10.804Z,17.50
2018-10-21T14:40:44.644Z,17.50
2018-10-21T14:43:18.124Z,17.50
2018-10-21T14:45:51.691Z,17.60
2018-10-21T14:48:25.048Z,17.70
2018-10-21T14:50:58.439Z,17.80
2018-10-21T14:53:31.851Z,18.00
2018-10-21T14:56:05.823Z,17.90
2018-10-21T14:58:39.219Z,17.90
2018-10-21T15:01:12.690Z,18.00
2018-10-21T15:03:46.141Z,18.00
2018-10-21T15:06:19.531Z,18.10
2018-10-21T15:08:52.932Z,18.10
2018-10-21T15:11:26.387Z,18.20
2018-10-21T15:13:59.820Z,18.30
2018-10-21T15:16:33.237Z,18.40
2018-10-21T15:19:06.805Z,18.30
2018-10-21T15:21:40.212Z,18.30
2018-10-21T15:24:13.681Z,18.20
2018-10-21T15:26:47.164Z,18.20
2018-10-21T15:29:20.588Z,18.30
2018-10-21T15:31:54.178Z,18.30
2018-10-21T15:34:27.586Z,18.30
2018-10-21T15:37:00.981Z,18.20
2018-10-21T15:39:34.386Z,18.20
2018-10-21T15:42:07.777Z,18.20
2018-10-21T15:44:42.200Z,18.10
2018-10-21T15:47:15.593Z,18.00
2018-10-21T15:49:49.023Z,18.00
2018-10-21T15:52:22.465Z,17.80
2018-10-21T15:54:55.816Z,17.80
2018-10-21T15:57:29.195Z,17.80
2018-10-21T16:00:02.601Z,17.70
2018-10-21T16:02:36.216Z,17.80
2018-10-21T16:05:10.260Z,17.80
2018-10-21T16:07:43.635Z,17.70
2018-10-21T16:10:17.128Z,17.60
2018-10-21T16:12:51.472Z,17.50
2018-10-21T16:15:24.863Z,17.40
2018-10-21T16:17:58.231Z,17.20
2018-10-21T16:20:31.633Z,17.20
2018-10-21T16:23:06.091Z,17.10
2018-10-21T16:25:39.567Z,17.10
2018-10-21T16:28:12.886Z,17.10
2018-10-21T16:30:46.423Z,17.10
2018-10-21T16:33:20.015Z,17.00
2018-10-21T16:35:53.489Z,16.80
2018-10-21T16:38:27.039Z,16.70
2018-10-21T16:41:00.411Z,16.70
2018-10-21T16:43:33.820Z,16.70
2018-10-21T16:46:07.274Z,16.80
2018-10-21T16:48:40.689Z,16.70
2018-10-21T16:51:14.206Z,16.70
2018-10-21T16:53:47.604Z,16.60
2018-10-21T16:56:20.987Z,16.70
2018-10-21T16:58:54.447Z,16.50
2018-10-21T17:01:27.843Z,16.50
2018-10-21T17:04:01.271Z,16.50
2018-10-21T17:06:34.657Z,16.50
2018-10-21T17:09:10.562Z,16.40
2018-10-21T17:11:44.396Z,16.30
2018-10-21T17:14:17.804Z,16.20
2018-10-21T17:16:51.240Z,16.30
2018-10-21T17:19:24.626Z,16.30
2018-10-21T17:21:58.079Z,16.30
2018-10-21T17:24:31.512Z,16.20
2018-10-21T17:27:05.168Z,16.30
2018-10-21T17:29:38.648Z,16.10
2018-10-21T17:32:13.127Z,16.20
2018-10-21T17:34:46.520Z,16.20
2018-10-21T17:37:19.888Z,16.10
2018-10-21T17:39:53.298Z,16.00
2018-10-21T17:42:26.721Z,15.90
2018-10-21T17:45:00.292Z,15.80
2018-10-21T17:47:33.661Z,15.70
2018-10-21T17:50:08.264Z,15.60
2018-10-21T17:52:42.073Z,15.40
2018-10-21T17:55:15.571Z,15.30
2018-10-21T17:57:48.964Z,15.40
2018-10-21T18:00:22.405Z,15.50
2018-10-21T18:02:55.840Z,15.60
2018-10-21T18:05:29.284Z,15.60
2018-10-21T18:08:02.683Z,15.60
2018-10-21T18:10:36.132Z,15.60
2018-10-21T18:13:10.663Z,15.70
2018-10-21T18:15:43.975Z,15.70
2018-10-21T18:18:17.451Z,15.70
2018-10-21T18:20:50.851Z,15.60
2018-10-21T18:23:24.239Z,15.60
2018-10-21T18:25:57.696Z,15.50
2018-10-21T18:28:31.148Z,15.40
2018-10-21T18:31:04.663Z,15.40
2018-10-21T18:33:38.036Z,15.40
2018-10-21T18:36:11.444Z,15.30
2018-10-21T18:38:44.880Z,15.30
2018-10-21T18:41:18.664Z,14.80
2018-10-21T18:43:52.164Z,14.90
2018-10-21T18:46:25.574Z,15.00
2018-10-21T18:49:01.104Z,15.00
2018-10-21T18:51:34.512Z,15.00
2018-10-21T18:54:07.935Z,14.80
2018-10-21T18:56:41.652Z,14.80
2018-10-21T18:59:15.063Z,14.80
2018-10-21T19:01:48.480Z,14.80
2018-10-21T19:04:21.884Z,14.80
2018-10-21T19:06:55.314Z,14.70
2018-10-21T19:09:30.797Z,14.60
2018-10-21T19:12:04.251Z,14.60
2018-10-21T19:14:37.643Z,14.50
2018-10-21T19:17:11.043Z,14.20
2018-10-21T19:19:44.423Z,13.60
2018-10-21T19:22:17.896Z,13.60
2018-10-21T19:24:51.264Z,13.50
2018-10-21T19:27:24.704Z,13.40
2018-10-21T19:29:58.164Z,13.60
2018-10-21T19:32:31.572Z,13.60
2018-10-21T19:35:05.384Z,13.70
2018-10-21T19:37:38.968Z,13.70
2018-10-21T19:40:14.506Z,13.70
2018-10-21T19:42:47.973Z,13.70
2018-10-21T19:45:21.342Z,13.70
2018-10-21T19:47:54.854Z,13.50
2018-10-21T19:50:28.268Z,13.60
2018-10-21T19:53:01.684Z,13.60
2018-10-21T19:55:35.069Z,13.60
2018-10-21T19:58:08.495Z,13.70
2018-10-21T20:00:41.871Z,13.60
2018-10-21T20:03:15.340Z,13.50
2018-10-21T20:05:48.775Z,13.40
2018-10-21T20:08:22.240Z,13.30
2018-10-21T20:10:55.730Z,13.30
2018-10-21T20:13:29.112Z,13.30
2018-10-21T20:16:02.533Z,13.40
2018-10-21T20:18:37.008Z,13.40
2018-10-21T20:21:10.481Z,13.20
2018-10-21T20:23:43.867Z,13.10
2018-10-21T20:26:17.360Z,13.10
2018-10-21T20:28:50.747Z,13.10
2018-10-21T20:31:24.385Z,13.10
2018-10-21T20:33:57.786Z,13.10
2018-10-21T20:36:31.254Z,13.10
2018-10-21T20:39:07.144Z,13.10
2018-10-21T20:41:40.588Z,13.10
2018-10-21T20:44:13.989Z,13.10
2018-10-21T20:46:47.426Z,12.80
2018-10-21T20:49:20.872Z,12.80
2018-10-21T20:51:54.312Z,12.80
2018-10-21T20:54:33.129Z,12.80
2018-10-21T20:57:09.676Z,12.80
2018-10-21T20:59:44.234Z,12.80
2018-10-21T21:02:17.665Z,12.90
2018-10-21T21:04:51.061Z,12.90
2018-10-21T21:07:24.556Z,12.80
2018-10-21T21:09:58.084Z,12.80
2018-10-21T21:12:31.482Z,12.50
2018-10-21T21:15:05.612Z,12.50
2018-10-21T21:17:39.091Z,12.50
2018-10-21T21:20:12.492Z,12.50
2018-10-21T21:22:45.924Z,12.30
2018-10-21T21:25:19.384Z,12.40
2018-10-21T21:27:52.812Z,12.40
2018-10-21T21:30:26.265Z,12.30
2018-10-21T21:32:59.665Z,12.20
2018-10-21T21:35:33.176Z,12.70
2018-10-21T21:38:06.606Z,13.10
2018-10-21T21:40:39.975Z,12.90
2018-10-21T21:43:13.373Z,12.80
2018-10-21T21:45:46.769Z,12.60
2018-10-21T21:48:20.231Z,12.50
2018-10-21T21:50:53.607Z,12.40
2018-10-21T21:53:27.000Z,12.40
2018-10-21T21:56:00.445Z,12.30
2018-10-21T21:58:33.852Z,12.20
2018-10-21T22:01:07.331Z,12.20
2018-10-21T22:03:40.731Z,12.20
2018-10-21T22:06:14.264Z,12.10
2018-10-21T22:08:47.547Z,11.80
2018-10-21T22:11:20.944Z,11.80
2018-10-21T22:13:54.363Z,11.80
2018-10-21T22:16:27.803Z,11.80
2018-10-21T22:19:01.209Z,11.80
2018-10-21T22:21:34.879Z,11.70
2018-10-21T22:24:09.785Z,11.40
2018-10-21T22:26:43.186Z,11.40
2018-10-21T22:29:16.616Z,11.40
2018-10-21T22:31:50.061Z,11.50
2018-10-21T22:34:23.508Z,11.50
2018-10-21T22:36:56.936Z,11.50
2018-10-21T22:39:33.788Z,11.40
2018-10-21T22:42:07.253Z,11.50
2018-10-21T22:44:40.611Z,11.40
2018-10-21T22:47:14.018Z,11.50
2018-10-21T22:49:47.417Z,11.30
2018-10-21T22:52:20.906Z,11.10
2018-10-21T22:54:54.284Z,11.20
2018-10-21T22:57:27.683Z,11.30
2018-10-21T23:00:01.177Z,11.30
2018-10-21T23:02:34.591Z,11.30
2018-10-21T23:05:08.451Z,11.10
2018-10-21T23:07:41.855Z,11.00
2018-10-21T23:10:15.379Z,11.00
2018-10-21T23:12:48.726Z,11.10
2018-10-21T23:15:22.148Z,10.90
2018-10-21T23:17:55.633Z,10.80
2018-10-21T23:20:28.999Z,10.90
2018-10-21T23:23:02.405Z,10.90
2018-10-21T23:25:35.776Z,11.00
2018-10-21T23:28:09.289Z,10.80
2018-10-21T23:30:42.675Z,10.80
2018-10-21T23:33:16.100Z,10.60
2018-10-21T23:35:49.471Z,10.60
2018-10-21T23:38:22.911Z,10.70
2018-10-21T23:40:57.373Z,10.60
2018-10-21T23:43:30.767Z,10.50
2018-10-21T23:46:04.241Z,10.00
2018-10-21T23:48:37.659Z,9.90
2018-10-21T23:51:11.051Z,10.10
2018-10-21T23:53:44.443Z,10.20
2018-10-21T23:56:17.875Z,10.20
2018-10-21T23:58:51.276Z,10.10
